Time;durP1;ratioP1;P1;durP2;ratioP2;P2;SDS_P1;SDS_P2;PMS_P1;PMS_P2;Temp;Humidity;BMP_temperature;BMP_pressure;BME280_temperature;BME280_humidity;BME280_pressure;Samples;Min_cycle;Max_cycle;Signal;HPM_P1;HPM_P2
2022/05/05 00:01:25;;;;;;;11.32;5.80;;;16.10;99.90;;;;;;5064802;28;20068;-73
2022/05/05 00:03:53;;;;;;;7.45;5.38;;;16.10;99.90;;;;;;5055919;28;20476;-73
2022/05/05 00:06:21;;;;;;;8.65;6.53;;;16.00;99.90;;;;;;5089709;28;20058;-73
2022/05/05 00:08:48;;;;;;;8.88;5.72;;;16.00;99.90;;;;;;5067257;28;20094;-73
2022/05/05 00:16:49;;;;;;;12.63;6.45;;;15.60;99.90;;;;;;5050937;28;20105;-73
2022/05/05 00:19:17;;;;;;;22.73;7.43;;;15.60;99.90;;;;;;5033852;28;20580;-73
2022/05/05 00:21:45;;;;;;;8.48;6.35;;;15.50;99.90;;;;;;5051015;28;20037;-73
2022/05/05 00:24:13;;;;;;;9.95;7.47;;;15.50;99.90;;;;;;5031991;28;20052;-73
2022/05/05 00:26:40;;;;;;;9.32;7.43;;;15.50;99.90;;;;;;5037909;28;20502;-73
2022/05/05 00:29:08;;;;;;;8.80;6.07;;;15.40;99.90;;;;;;5066682;28;20094;-73
2022/05/05 00:31:35;;;;;;;10.13;7.85;;;15.50;99.90;;;;;;5034331;28;20040;-73
2022/05/05 00:34:03;;;;;;;9.50;6.90;;;15.60;99.90;;;;;;5048900;28;20048;-74
2022/05/05 00:36:31;;;;;;;9.35;6.70;;;15.60;99.90;;;;;;5071610;28;20071;-73
2022/05/05 00:38:58;;;;;;;8.88;6.53;;;15.70;99.90;;;;;;5066913;28;20041;-73
2022/05/05 00:41:26;;;;;;;8.82;7.00;;;15.70;99.90;;;;;;5068583;28;20055;-73
2022/05/05 00:43:53;;;;;;;15.23;7.75;;;15.60;99.90;;;;;;5058419;28;20044;-73
2022/05/05 00:46:21;;;;;;;11.88;7.28;;;15.50;99.90;;;;;;5072919;28;20132;-74
2022/05/05 00:48:50;;;;;;;10.68;7.63;;;15.50;99.90;;;;;;5064246;28;20690;-74
2022/05/05 00:51:18;;;;;;;11.65;8.27;;;15.50;99.90;;;;;;5091200;28;20079;-74
2022/05/05 00:53:45;;;;;;;13.23;7.50;;;15.60;99.90;;;;;;5055700;28;20515;-74
2022/05/05 00:56:14;;;;;;;11.05;7.80;;;15.50;99.90;;;;;;5055033;28;20131;-74
2022/05/05 00:58:45;;;;;;;11.75;7.43;;;15.50;99.90;;;;;;5076044;28;20056;-74
2022/05/05 01:01:17;;;;;;;12.52;8.45;;;15.50;99.90;;;;;;5076203;28;20086;-74
2022/05/05 01:03:46;;;;;;;11.70;8.40;;;15.50;99.90;;;;;;5058804;28;20143;-74
2022/05/05 01:06:16;;;;;;;12.25;8.57;;;15.50;99.90;;;;;;5076067;28;20131;-74
2022/05/05 01:08:44;;;;;;;15.52;9.05;;;15.50;99.90;;;;;;5076296;28;20072;-74
2022/05/05 01:11:12;;;;;;;12.88;8.45;;;15.40;99.90;;;;;;5093526;28;20072;-74
2022/05/05 01:13:41;;;;;;;12.52;9.30;;;15.50;99.90;;;;;;5059404;28;20052;-74
2022/05/05 01:16:10;;;;;;;11.38;8.43;;;15.60;99.90;;;;;;5073808;28;20047;-74
2022/05/05 01:18:38;;;;;;;11.43;8.40;;;15.70;99.90;;;;;;5075508;28;20051;-74
2022/05/05 01:21:09;;;;;;;11.77;7.75;;;15.70;99.90;;;;;;5075723;28;20148;-74
2022/05/05 01:23:37;;;;;;;9.80;7.28;;;15.70;99.90;;;;;;5059011;28;20044;-74
2022/05/05 01:28:52;;;;;;;11.88;8.45;;;15.50;99.90;;;;;;5075156;28;20082;-74
2022/05/05 01:31:20;;;;;;;12.93;8.15;;;15.40;99.90;;;;;;5075206;28;20062;-74
2022/05/05 01:33:47;;;;;;;12.13;8.32;;;15.40;99.90;;;;;;5058920;28;20044;-74
2022/05/05 01:36:15;;;;;;;11.05;7.78;;;15.30;99.90;;;;;;5075429;28;20119;-74
2022/05/05 01:38:44;;;;;;;10.15;7.35;;;15.30;99.90;;;;;;5075446;28;20502;-74
2022/05/05 01:41:13;;;;;;;11.90;8.18;;;15.30;99.90;;;;;;5074990;28;20560;-74
2022/05/05 01:43:44;;;;;;;15.02;8.80;;;15.30;99.90;;;;;;5074609;28;20414;-74
2022/05/05 01:46:11;;;;;;;12.27;8.20;;;15.40;99.90;;;;;;5058749;28;20101;-74
2022/05/05 01:48:39;;;;;;;13.57;8.35;;;15.40;99.90;;;;;;5093214;28;20051;-73
2022/05/05 01:51:07;;;;;;;10.27;8.15;;;15.40;99.90;;;;;;5074996;28;20454;-73
2022/05/05 01:53:37;;;;;;;13.18;7.78;;;15.30;99.90;;;;;;5075118;28;20043;-73
2022/05/05 01:56:14;;;;;;;12.02;8.25;;;15.20;99.90;;;;;;5058107;28;20044;-74
2022/05/05 01:58:42;;;;;;;12.15;8.82;;;15.10;99.90;;;;;;5075324;28;20493;-74
2022/05/05 02:01:11;;;;;;;11.85;8.80;;;15.10;99.90;;;;;;5074689;28;20050;-74
2022/05/05 02:03:39;;;;;;;16.08;8.68;;;15.10;99.90;;;;;;5056007;28;20059;-73
2022/05/05 02:06:07;;;;;;;13.00;9.02;;;15.20;99.90;;;;;;5092989;28;20501;-73
2022/05/05 02:08:37;;;;;;;12.95;8.38;;;15.20;99.90;;;;;;5075368;28;20059;-73
2022/05/05 02:11:04;;;;;;;13.80;8.70;;;15.10;99.90;;;;;;5058208;28;20040;-73
2022/05/05 02:13:32;;;;;;;11.90;8.45;;;15.20;99.90;;;;;;5093002;28;20428;-74
2022/05/05 02:16:00;;;;;;;10.18;7.80;;;15.20;99.90;;;;;;5057956;28;20048;-74
2022/05/05 02:18:27;;;;;;;12.55;8.77;;;15.20;99.90;;;;;;5057838;28;20551;-74
2022/05/05 02:20:55;;;;;;;12.07;7.75;;;15.10;99.90;;;;;;5075032;28;20077;-74
2022/05/05 02:23:23;;;;;;;11.63;7.70;;;15.10;99.90;;;;;;5057503;28;20151;-74
2022/05/05 02:25:52;;;;;;;12.68;8.43;;;15.00;99.90;;;;;;5057997;28;20052;-74
2022/05/05 02:28:20;;;;;;;14.57;9.23;;;15.00;99.90;;;;;;5074640;28;20048;-74
2022/05/05 02:30:48;;;;;;;13.95;7.47;;;15.00;99.90;;;;;;5092502;28;20040;-74
2022/05/05 02:33:15;;;;;;;11.48;8.00;;;15.00;99.90;;;;;;5058253;28;20117;-74
2022/05/05 02:35:43;;;;;;;12.18;8.73;;;15.00;99.90;;;;;;5074571;28;20075;-74
2022/05/05 02:40:56;;;;;;;10.20;8.23;;;15.10;99.90;;;;;;5057927;28;20059;-74
2022/05/05 02:43:24;;;;;;;9.98;7.70;;;15.10;99.90;;;;;;5073484;28;20294;-74
2022/05/05 02:45:52;;;;;;;9.82;6.82;;;15.00;99.90;;;;;;5074346;28;20158;-74
2022/05/05 02:48:19;;;;;;;12.73;8.13;;;15.00;99.90;;;;;;5074428;28;20052;-74
2022/05/05 02:50:47;;;;;;;11.38;8.65;;;15.00;99.90;;;;;;5074481;28;20043;-74
2022/05/05 02:56:00;;;;;;;12.43;7.55;;;15.00;99.90;;;;;;5057308;28;20063;-73
2022/05/05 02:58:29;;;;;;;12.05;8.65;;;15.00;99.90;;;;;;5072637;28;20050;-73
2022/05/05 03:00:56;;;;;;;13.35;8.55;;;15.00;99.90;;;;;;5052696;28;20037;-74
2022/05/05 03:03:24;;;;;;;11.38;8.05;;;15.00;99.90;;;;;;5056200;28;20500;-74
2022/05/05 03:05:52;;;;;;;12.88;8.60;;;15.00;99.90;;;;;;5056600;28;20052;-74
2022/05/05 03:08:19;;;;;;;13.63;8.55;;;15.00;99.90;;;;;;5073836;28;20040;-74
2022/05/05 03:10:47;;;;;;;10.30;7.65;;;15.10;99.90;;;;;;5073784;28;20494;-74
2022/05/05 03:13:14;;;;;;;14.32;8.63;;;15.10;99.90;;;;;;5073154;28;20119;-74
2022/05/05 03:15:42;;;;;;;12.82;8.45;;;15.10;99.90;;;;;;5091695;28;20859;-74
2022/05/05 03:18:10;;;;;;;12.82;7.93;;;15.00;99.90;;;;;;5091359;28;20112;-74
2022/05/05 03:20:37;;;;;;;11.00;8.30;;;14.90;99.90;;;;;;5072413;28;20097;-74
2022/05/05 03:23:05;;;;;;;13.70;8.40;;;14.80;99.90;;;;;;5091080;28;20207;-75
2022/05/05 03:25:33;;;;;;;11.68;8.13;;;14.70;99.90;;;;;;5091546;28;20379;-74
2022/05/05 03:28:00;;;;;;;12.60;8.50;;;14.80;99.90;;;;;;5072765;28;20578;-74
2022/05/05 03:30:28;;;;;;;12.13;9.20;;;14.90;99.90;;;;;;5056660;28;20048;-74
2022/05/05 03:32:56;;;;;;;11.60;7.80;;;14.80;99.90;;;;;;5039851;28;20052;-74
2022/05/05 03:35:23;;;;;;;13.90;8.85;;;14.70;99.90;;;;;;5072977;28;20035;-74
2022/05/05 03:37:51;;;;;;;13.55;9.90;;;14.80;99.90;;;;;;5056069;28;20583;-74
2022/05/05 03:40:18;;;;;;;12.73;9.38;;;14.70;99.90;;;;;;5056590;28;20048;-74
2022/05/05 03:42:46;;;;;;;16.13;9.52;;;14.70;99.90;;;;;;5090784;28;20490;-74
2022/05/05 03:45:13;;;;;;;14.93;8.35;;;14.60;99.90;;;;;;5072615;28;20044;-74
2022/05/05 03:47:41;;;;;;;14.38;11.18;;;14.70;99.90;;;;;;5073069;28;20044;-73
2022/05/05 03:50:09;;;;;;;15.68;10.07;;;14.70;99.90;;;;;;5072940;28;20762;-74
2022/05/05 03:52:37;;;;;;;15.45;11.10;;;14.70;99.90;;;;;;5063462;28;20118;-73
2022/05/05 03:55:05;;;;;;;16.05;10.30;;;14.80;99.90;;;;;;5052813;28;20455;-73
2022/05/05 03:57:35;;;;;;;19.13;11.13;;;14.70;99.90;;;;;;5020959;28;20036;-74
2022/05/05 04:00:04;;;;;;;18.73;11.43;;;14.60;99.90;;;;;;5069269;28;20494;-74
2022/05/05 04:02:38;;;;;;;15.13;10.38;;;14.70;99.90;;;;;;5070313;28;20549;-74
2022/05/05 04:05:06;;;;;;;15.27;10.38;;;14.70;99.90;;;;;;5069012;28;20040;-73
2022/05/05 04:07:34;;;;;;;18.85;11.80;;;14.80;99.90;;;;;;5069122;28;20040;-74
2022/05/05 04:10:01;;;;;;;16.00;11.18;;;14.80;99.90;;;;;;5069164;28;20376;-73
2022/05/05 04:12:29;;;;;;;14.23;10.23;;;14.80;99.90;;;;;;5070410;28;20040;-74
2022/05/05 04:14:56;;;;;;;20.17;13.02;;;14.80;99.90;;;;;;5035656;28;20137;-74
2022/05/05 04:17:24;;;;;;;16.40;12.32;;;14.80;99.90;;;;;;5069526;28;20139;-74
2022/05/05 04:19:51;;;;;;;16.63;12.13;;;14.80;99.90;;;;;;5052267;28;20056;-74
2022/05/05 04:22:19;;;;;;;17.30;10.90;;;14.90;99.90;;;;;;5051678;28;20087;-74
2022/05/05 04:24:47;;;;;;;14.95;11.15;;;15.10;99.90;;;;;;5052016;28;20148;-74
2022/05/05 04:27:14;;;;;;;16.20;11.57;;;15.20;99.90;;;;;;5052054;28;20051;-74
2022/05/05 04:29:43;;;;;;;16.08;11.25;;;15.30;99.90;;;;;;5069772;28;20052;-74
2022/05/05 04:32:10;;;;;;;17.42;10.43;;;15.30;99.90;;;;;;5052071;28;20360;-73
2022/05/05 04:34:40;;;;;;;17.55;10.07;;;15.40;99.90;;;;;;5069445;28;20058;-73
2022/05/05 04:37:07;;;;;;;17.35;11.55;;;15.40;99.90;;;;;;5099911;28;20036;-74
2022/05/05 04:39:35;;;;;;;18.20;11.77;;;15.50;99.90;;;;;;5061120;28;20041;-73
2022/05/05 04:42:03;;;;;;;14.68;9.77;;;15.50;99.90;;;;;;5057672;28;20063;-75
2022/05/05 04:44:32;;;;;;;16.83;10.93;;;15.50;99.90;;;;;;5006565;28;20040;-74
2022/05/05 04:47:01;;;;;;;14.48;10.68;;;15.60;99.90;;;;;;5023649;28;20158;-73
2022/05/05 04:49:29;;;;;;;17.77;10.93;;;15.70;99.90;;;;;;5048698;28;20372;-72
2022/05/05 04:51:57;;;;;;;15.35;11.18;;;16.00;99.90;;;;;;5071772;28;20048;-72
2022/05/05 04:54:24;;;;;;;13.38;9.60;;;16.00;99.90;;;;;;5066256;28;20143;-73
2022/05/05 04:56:52;;;;;;;14.52;9.57;;;16.10;99.90;;;;;;5079338;28;20500;-72
2022/05/05 04:59:20;;;;;;;13.68;9.18;;;16.20;99.90;;;;;;5039114;28;20083;-72
2022/05/05 05:01:47;;;;;;;16.95;11.07;;;16.40;99.90;;;;;;5089825;28;20379;-72
2022/05/05 05:04:17;;;;;;;14.93;10.20;;;16.60;99.90;;;;;;5072955;28;20051;-72
2022/05/05 05:06:45;;;;;;;15.35;9.48;;;16.70;99.90;;;;;;5071801;28;20047;-73
2022/05/05 05:09:13;;;;;;;16.73;10.48;;;16.60;99.90;;;;;;5071452;28;20454;-73
2022/05/05 05:11:40;;;;;;;13.93;9.98;;;16.70;99.90;;;;;;5055546;28;20087;-72
2022/05/05 05:14:08;;;;;;;12.15;9.35;;;16.80;99.90;;;;;;5055276;28;20144;-73
2022/05/05 05:16:36;;;;;;;12.88;9.98;;;16.70;99.90;;;;;;5071793;28;20138;-72
2022/05/05 05:19:08;;;;;;;15.93;10.52;;;16.80;99.90;;;;;;5089753;28;20441;-72
2022/05/05 05:21:35;;;;;;;14.60;10.10;;;16.90;99.90;;;;;;5071872;28;20402;-73
2022/05/05 05:24:03;;;;;;;14.55;9.50;;;17.20;99.90;;;;;;5071884;28;20151;-73
2022/05/05 05:26:31;;;;;;;12.32;8.85;;;17.30;99.90;;;;;;5071993;28;20036;-73
2022/05/05 05:28:59;;;;;;;14.20;9.32;;;17.30;99.90;;;;;;5072847;28;20127;-73
2022/05/05 05:31:28;;;;;;;13.38;9.45;;;17.20;99.90;;;;;;5041928;28;20147;-73
2022/05/05 05:33:56;;;;;;;12.90;8.45;;;17.20;99.90;;;;;;5089675;28;20051;-73
2022/05/05 05:36:23;;;;;;;11.80;7.93;;;17.10;99.90;;;;;;5042130;28;20117;-73
2022/05/05 05:38:51;;;;;;;14.73;9.15;;;17.20;99.90;;;;;;5058945;28;20398;-73
2022/05/05 05:41:19;;;;;;;13.02;9.02;;;17.20;99.90;;;;;;5093838;28;20047;-73
2022/05/05 05:43:47;;;;;;;11.77;7.53;;;17.40;99.90;;;;;;5093127;28;20043;-73
2022/05/05 05:46:15;;;;;;;13.70;9.07;;;17.60;99.90;;;;;;5093560;28;20780;-72
2022/05/05 05:48:43;;;;;;;11.55;7.95;;;17.70;99.90;;;;;;5075507;28;20041;-72
2022/05/05 05:51:10;;;;;;;11.57;7.30;;;17.80;99.90;;;;;;5075315;28;20048;-73
2022/05/05 05:53:38;;;;;;;9.25;6.57;;;17.70;99.90;;;;;;5075262;28;20078;-72
2022/05/05 05:56:05;;;;;;;10.02;6.53;;;17.90;99.90;;;;;;5075237;28;20036;-73
2022/05/05 05:58:37;;;;;;;10.07;7.00;;;18.00;99.90;;;;;;5074744;28;20071;-73
2022/05/05 06:01:06;;;;;;;11.00;7.53;;;18.00;99.90;;;;;;5074933;28;20048;-73
2022/05/05 06:03:53;;;;;;;9.40;6.15;;;18.00;99.90;;;;;;5058286;28;20044;-73
2022/05/05 06:06:22;;;;;;;11.90;6.65;;;18.20;99.90;;;;;;5074931;28;20146;-73
2022/05/05 06:08:50;;;;;;;8.50;6.03;;;18.20;99.90;;;;;;5057067;28;20387;-73
2022/05/05 06:11:19;;;;;;;9.32;6.53;;;18.20;99.90;;;;;;5074377;28;20047;-73
2022/05/05 06:13:47;;;;;;;7.90;5.43;;;18.30;99.90;;;;;;5074570;28;20047;-73
2022/05/05 06:16:15;;;;;;;9.02;5.82;;;18.40;99.90;;;;;;5092597;28;20093;-72
2022/05/05 06:18:42;;;;;;;8.05;6.13;;;18.50;99.90;;;;;;5074942;28;20074;-73
2022/05/05 06:21:10;;;;;;;8.57;5.78;;;18.50;99.90;;;;;;5057843;28;20051;-73
2022/05/05 06:23:38;;;;;;;7.78;5.53;;;18.70;99.90;;;;;;5074926;28;20441;-73
2022/05/05 06:26:06;;;;;;;6.60;4.88;;;18.90;99.90;;;;;;5058131;28;20079;-73
2022/05/05 06:28:34;;;;;;;8.35;5.50;;;19.10;99.90;;;;;;5074379;28;20083;-73
2022/05/05 06:31:04;;;;;;;9.23;5.25;;;19.40;99.90;;;;;;5071787;28;20433;-73
2022/05/05 06:33:32;;;;;;;6.38;4.78;;;19.30;99.90;;;;;;5057911;28;20048;-73
2022/05/05 06:36:00;;;;;;;8.68;5.00;;;19.40;99.90;;;;;;5074162;28;20063;-73
2022/05/05 06:38:27;;;;;;;6.72;4.75;;;19.50;99.90;;;;;;5057848;28;20047;-73
2022/05/05 06:40:55;;;;;;;6.57;4.28;;;19.30;99.90;;;;;;5056941;28;20079;-73
2022/05/05 06:43:22;;;;;;;8.30;4.88;;;19.30;99.90;;;;;;5073879;28;20146;-72
2022/05/05 06:45:50;;;;;;;7.53;5.00;;;19.40;99.90;;;;;;5092064;28;20417;-72
2022/05/05 06:48:18;;;;;;;8.55;5.43;;;19.40;99.90;;;;;;5074408;28;20054;-73
2022/05/05 06:50:45;;;;;;;6.32;4.88;;;19.50;99.90;;;;;;5074264;28;20098;-73
2022/05/05 06:53:13;;;;;;;8.77;5.55;;;19.40;99.90;;;;;;5073557;28;20044;-73
2022/05/05 06:55:40;;;;;;;9.50;4.10;;;19.40;99.90;;;;;;5092045;28;20567;-73
2022/05/05 06:58:08;;;;;;;7.60;4.35;;;19.80;99.90;;;;;;5040642;28;20040;-73
2022/05/05 07:03:21;;;;;;;6.55;4.72;;;20.10;99.90;;;;;;5056358;28;20056;-73
2022/05/05 07:05:49;;;;;;;5.28;3.53;;;20.10;99.60;;;;;;5040832;28;20390;-73
2022/05/05 07:08:16;;;;;;;7.18;3.83;;;20.00;99.10;;;;;;5091520;28;20044;-73
2022/05/05 07:10:53;;;;;;;6.15;4.13;;;20.10;99.20;;;;;;5057281;28;20453;-73
2022/05/05 07:13:21;;;;;;;;;;;20.20;99.50;;;;;;5040619;28;20139;-73
2022/05/05 07:15:49;;;;;;;22.05;4.93;;;20.30;98.70;;;;;;5073811;28;19927;-73
2022/05/05 07:18:17;;;;;;;6.93;4.47;;;20.50;98.10;;;;;;5056654;28;20052;-73
2022/05/05 07:20:45;;;;;;;7.75;3.83;;;20.50;97.70;;;;;;5056708;28;20052;-73
2022/05/05 07:23:14;;;;;;;6.13;3.85;;;20.70;97.80;;;;;;5039471;28;20059;-73
2022/05/05 07:25:42;;;;;;;4.93;3.50;;;20.90;97.70;;;;;;5073259;28;20067;-73
2022/05/05 07:28:10;;;;;;;4.70;3.50;;;20.90;95.60;;;;;;5058305;28;20055;-73
2022/05/05 07:30:37;;;;;;;4.80;3.15;;;21.00;95.30;;;;;;5073465;28;20052;-73
2022/05/05 07:33:06;;;;;;;4.22;3.00;;;21.00;94.90;;;;;;5073001;28;20171;-73
2022/05/05 07:35:36;;;;;;;4.25;2.97;;;21.10;95.60;;;;;;5091464;28;20044;-73
2022/05/05 07:38:04;;;;;;;5.75;3.33;;;21.40;95.50;;;;;;5055844;28;20083;-73
2022/05/05 07:40:32;;;;;;;5.00;3.35;;;21.40;94.00;;;;;;5073133;28;20051;-72
2022/05/05 07:42:59;;;;;;;4.07;3.03;;;21.10;95.10;;;;;;5056117;28;20486;-73
2022/05/05 07:45:27;;;;;;;4.82;3.35;;;21.00;95.00;;;;;;5072338;28;20053;-73
2022/05/05 07:47:59;;;;;;;4.03;2.60;;;21.10;95.00;;;;;;5056821;28;20055;-73
2022/05/05 07:50:26;;;;;;;4.20;2.63;;;21.20;94.60;;;;;;5055759;28;20048;-73
2022/05/05 07:52:54;;;;;;;3.10;2.40;;;21.30;94.40;;;;;;5056457;28;20048;-73
2022/05/05 07:55:21;;;;;;;4.47;2.80;;;21.40;93.30;;;;;;5072825;28;20109;-73
2022/05/05 07:57:48;;;;;;;4.13;2.47;;;21.60;92.60;;;;;;5072521;28;20052;-73
2022/05/05 08:00:16;;;;;;;5.00;3.33;;;21.70;92.60;;;;;;5073014;28;20398;-73
2022/05/05 08:02:44;;;;;;;4.05;2.80;;;21.80;93.40;;;;;;5056149;28;20101;-73
2022/05/05 08:05:12;;;;;;;5.47;2.72;;;21.90;92.30;;;;;;5072199;28;20044;-74
2022/05/05 08:07:41;;;;;;;4.07;2.60;;;22.10;92.10;;;;;;5090537;28;20101;-73
2022/05/05 08:10:10;;;;;;;4.47;2.30;;;22.30;91.70;;;;;;5072678;28;20569;-73
2022/05/05 08:12:38;;;;;;;4.00;2.70;;;22.30;91.60;;;;;;5090675;28;20588;-73
2022/05/05 08:15:07;;;;;;;5.68;3.78;;;22.10;92.10;;;;;;5055956;28;20132;-72
2022/05/05 08:17:35;;;;;;;3.97;3.28;;;22.10;92.10;;;;;;5056218;28;20749;-73
2022/05/05 08:20:05;;;;;;;3.78;2.47;;;22.10;92.20;;;;;;5056447;28;20524;-73
2022/05/05 08:22:33;;;;;;;5.90;3.63;;;21.80;92.70;;;;;;5069954;28;20498;-73
2022/05/05 08:30:32;;;;;;;7.57;2.97;;;21.70;93.20;;;;;;5056120;28;20052;-73
2022/05/05 08:32:59;;;;;;;4.70;3.70;;;21.80;92.50;;;;;;5072633;28;20050;-73
2022/05/05 08:35:27;;;;;;;4.05;3.00;;;21.90;93.20;;;;;;5055889;28;20569;-73
2022/05/05 08:37:56;;;;;;;4.75;3.20;;;21.90;93.30;;;;;;5037288;28;20474;-73
2022/05/05 08:40:27;;;;;;;4.05;2.90;;;21.60;92.50;;;;;;5079081;28;20132;-73
2022/05/05 08:42:55;;;;;;;3.63;2.65;;;21.50;92.90;;;;;;5037255;28;20055;-73
2022/05/05 08:45:23;;;;;;;4.25;2.47;;;21.50;93.10;;;;;;5050396;28;20102;-73
2022/05/05 08:47:54;;;;;;;6.13;3.13;;;21.50;92.80;;;;;;5052369;28;20044;-73
2022/05/05 08:50:24;;;;;;;5.97;3.53;;;21.80;92.60;;;;;;5035730;28;20048;-73
2022/05/05 08:52:52;;;;;;;8.85;3.90;;;21.80;93.10;;;;;;5052188;28;20134;-73
2022/05/05 08:55:21;;;;;;;5.13;3.33;;;21.80;92.20;;;;;;5052054;28;20040;-73
2022/05/05 08:57:49;;;;;;;4.82;2.67;;;21.90;92.40;;;;;;5061124;28;20790;-73
2022/05/05 09:00:17;;;;;;;4.97;2.90;;;22.10;92.20;;;;;;5053119;28;20043;-73
2022/05/05 09:02:45;;;;;;;3.78;2.42;;;22.10;91.70;;;;;;5089397;28;20082;-73
2022/05/05 09:05:13;;;;;;;4.57;2.75;;;22.40;91.70;;;;;;5075521;28;20398;-73
2022/05/05 09:07:52;;;;;;;4.10;2.72;;;22.50;91.10;;;;;;5096851;28;20039;-73
2022/05/05 09:10:20;;;;;;;4.68;2.92;;;22.60;90.40;;;;;;5090545;28;20074;-73
2022/05/05 09:13:01;;;;;;;4.25;2.70;;;22.40;90.50;;;;;;5065048;28;20053;-74
2022/05/05 09:15:30;;;;;;;5.18;2.80;;;22.50;90.50;;;;;;5046953;28;20478;-73
2022/05/05 09:18:12;;;;;;;3.85;2.67;;;22.40;90.80;;;;;;5060544;28;20474;-74
2022/05/05 09:20:41;;;;;;;4.35;2.90;;;22.40;90.80;;;;;;5071544;28;20040;-73
2022/05/05 09:23:31;;;;;;;4.05;2.83;;;22.60;90.40;;;;;;5093350;28;20044;-73
2022/05/05 09:26:08;;;;;;;4.70;2.90;;;22.80;90.20;;;;;;5075991;28;20444;-73
2022/05/05 09:28:36;;;;;;;4.55;2.88;;;23.00;90.40;;;;;;5073702;28;20486;-74
2022/05/05 09:31:10;;;;;;;4.13;3.25;;;23.20;90.70;;;;;;5049696;28;20043;-73
2022/05/05 09:33:41;;;;;;;5.00;2.70;;;23.30;90.60;;;;;;5066563;28;20143;-73
2022/05/05 09:36:17;;;;;;;4.10;2.58;;;23.40;90.90;;;;;;5054898;28;20063;-74
2022/05/05 09:38:56;;;;;;;4.43;2.80;;;23.10;90.10;;;;;;5052195;28;20367;-73
2022/05/05 09:41:28;;;;;;;4.00;2.65;;;23.10;89.80;;;;;;5057747;28;20052;-73
2022/05/05 09:44:10;;;;;;;3.63;2.47;;;23.00;87.80;;;;;;5058679;28;20059;-73
2022/05/05 09:46:38;;;;;;;3.45;2.25;;;22.70;85.90;;;;;;5058477;28;20528;-74
2022/05/05 09:49:09;;;;;;;4.30;2.50;;;22.50;87.20;;;;;;5051369;28;20048;-73
2022/05/05 09:57:40;;;;;;;6.63;3.15;;;22.70;89.00;;;;;;5073392;28;20379;-73
2022/05/05 10:05:58;;;;;;;4.30;2.83;;;23.00;88.30;;;;;;5093470;28;20489;-74
2022/05/05 10:08:47;;;;;;;3.90;2.80;;;23.10;88.20;;;;;;5078393;28;20128;-73
2022/05/05 10:11:15;;;;;;;4.68;2.60;;;23.40;87.90;;;;;;5052656;28;20399;-73
2022/05/05 10:13:45;;;;;;;4.85;2.72;;;23.40;87.70;;;;;;5064946;28;20040;-73
2022/05/05 10:16:16;;;;;;;3.85;2.97;;;23.40;87.70;;;;;;5089296;28;20036;-74
2022/05/05 10:18:44;;;;;;;6.30;3.03;;;23.10;89.20;;;;;;5074704;28;20090;-74
2022/05/05 10:21:46;;;;;;;4.35;2.55;;;23.00;88.70;;;;;;5074926;28;20054;-73
2022/05/05 10:24:22;;;;;;;5.00;2.90;;;23.10;89.80;;;;;;5054726;28;20432;-72
2022/05/05 10:26:51;;;;;;;5.18;3.03;;;23.20;91.10;;;;;;5070219;28;20044;-75
2022/05/05 10:29:31;;;;;;;5.00;3.65;;;23.40;90.90;;;;;;5054251;28;20584;-75
2022/05/05 10:32:18;;;;;;;4.13;3.20;;;23.50;90.60;;;;;;5054702;28;20060;-75
2022/05/05 10:34:53;;;;;;;4.72;2.80;;;23.40;91.00;;;;;;5051054;28;20114;-74
2022/05/05 10:37:32;;;;;;;4.07;2.95;;;23.30;89.10;;;;;;5063646;28;20040;-74
2022/05/05 10:40:06;;;;;;;3.83;2.78;;;23.20;90.00;;;;;;5054128;28;20083;-74
2022/05/05 10:42:43;;;;;;;5.57;3.35;;;23.20;89.40;;;;;;5054400;28;20056;-74
2022/05/05 10:45:12;;;;;;;6.45;3.50;;;23.10;88.70;;;;;;5037465;28;20046;-73
2022/05/05 10:47:52;;;;;;;4.75;3.00;;;23.00;88.70;;;;;;5071420;28;20054;-74
2022/05/05 10:50:31;;;;;;;4.00;3.03;;;23.00;89.30;;;;;;5075532;28;20440;-74
2022/05/05 10:52:59;;;;;;;6.05;3.10;;;23.00;90.20;;;;;;5063392;28;20129;-73
2022/05/05 10:55:45;;;;;;;4.30;3.30;;;23.10;90.40;;;;;;5037250;28;20636;-73
2022/05/05 10:58:57;;;;;;;3.83;2.85;;;23.10;90.80;;;;;;5050060;28;20052;-74
2022/05/05 11:01:30;;;;;;;6.05;3.45;;;23.00;91.00;;;;;;5053440;28;20092;-75
2022/05/05 11:04:12;;;;;;;5.45;3.60;;;22.80;90.80;;;;;;5054058;28;20048;-74
2022/05/05 11:06:42;;;;;;;5.68;3.53;;;22.70;91.30;;;;;;5045469;28;20036;-73
2022/05/05 11:09:27;;;;;;;4.95;3.47;;;22.90;91.50;;;;;;5056862;28;20143;-73
2022/05/05 11:12:22;;;;;;;8.40;4.20;;;23.00;91.50;;;;;;5068490;28;20050;-74
2022/05/05 11:23:47;;;;;;;5.80;3.97;;;22.80;92.10;;;;;;5079843;28;20033;-71
2022/05/05 11:26:20;;;;;;;5.53;3.85;;;23.00;94.10;;;;;;5060478;28;20046;-72
2022/05/05 11:28:49;;;;;;;5.07;4.25;;;23.20;92.80;;;;;;5070877;28;20067;-72
2022/05/05 11:31:18;;;;;;;7.68;5.15;;;23.40;93.30;;;;;;5097991;28;20739;-72
2022/05/05 11:34:00;;;;;;;6.88;3.92;;;23.50;93.60;;;;;;5068485;28;20201;-72
2022/05/05 11:36:30;;;;;;;5.13;3.60;;;23.50;93.80;;;;;;5068318;28;20046;-72
2022/05/05 11:38:59;;;;;;;6.90;4.40;;;23.30;92.70;;;;;;5059398;28;20044;-72
2022/05/05 11:41:28;;;;;;;6.30;4.18;;;23.10;93.40;;;;;;5074396;28;20320;-72
2022/05/05 11:44:14;;;;;;;7.07;4.22;;;23.10;93.70;;;;;;5095726;28;20048;-71
2022/05/05 11:46:44;;;;;;;6.53;3.92;;;23.00;93.70;;;;;;5053148;28;20705;-71
2022/05/05 11:49:12;;;;;;;9.02;4.35;;;22.70;93.60;;;;;;5070284;28;20577;-73
2022/05/05 11:51:39;;;;;;;6.82;3.83;;;22.60;93.70;;;;;;5036406;28;20443;-73
2022/05/05 11:54:11;;;;;;;3.78;3.30;;;22.70;93.60;;;;;;5053314;28;20135;-72
2022/05/05 11:56:51;;;;;;;6.47;4.28;;;22.60;92.00;;;;;;5055719;28;20139;-73
2022/05/05 12:02:10;;;;;;;5.57;3.22;;;22.20;92.30;;;;;;5071243;28;20497;-73
2022/05/05 12:04:44;;;;;;;6.38;3.72;;;22.30;92.40;;;;;;5111310;28;20036;-71
2022/05/05 12:07:20;;;;;;;5.55;3.47;;;22.40;92.10;;;;;;5066679;28;20052;-74
2022/05/05 12:09:49;;;;;;;4.93;3.80;;;22.40;92.30;;;;;;5066171;28;20047;-70
2022/05/05 12:12:22;;;;;;;5.20;3.08;;;22.50;92.00;;;;;;5061424;28;20051;-72
2022/05/05 12:14:56;;;;;;;5.45;3.50;;;22.50;91.80;;;;;;5100314;28;20059;-72
2022/05/05 12:17:27;;;;;;;5.15;3.35;;;22.50;91.40;;;;;;5078296;28;20036;-74
2022/05/05 12:19:59;;;;;;;4.05;2.47;;;22.50;91.00;;;;;;5072257;28;20051;-74
2022/05/05 12:22:37;;;;;;;8.30;3.63;;;22.60;90.90;;;;;;5071498;28;20036;-70
2022/05/05 12:25:16;;;;;;;5.03;3.15;;;22.50;90.90;;;;;;5054341;28;20036;-70
2022/05/05 12:28:03;;;;;;;6.30;3.70;;;22.50;91.00;;;;;;5053304;28;20785;-74
2022/05/05 12:30:39;;;;;;;3.67;2.60;;;22.50;90.90;;;;;;5081798;28;20040;-74
2022/05/05 12:33:15;;;;;;;5.00;3.10;;;22.50;90.70;;;;;;5066085;28;20133;-76
2022/05/05 12:35:44;;;;;;;4.18;3.17;;;22.50;90.80;;;;;;5089567;28;20048;-72
2022/05/05 12:38:15;;;;;;;8.48;3.78;;;22.50;90.60;;;;;;5098008;28;20047;-71
2022/05/05 12:40:44;;;;;;;5.43;3.30;;;22.50;90.60;;;;;;5069504;28;20064;-70
2022/05/05 12:43:16;;;;;;;4.40;2.90;;;22.50;90.40;;;;;;5072407;28;20043;-72
2022/05/05 12:45:46;;;;;;;4.63;3.03;;;22.60;90.50;;;;;;5055580;28;20045;-71
2022/05/05 12:48:13;;;;;;;8.18;3.28;;;22.70;90.40;;;;;;5060607;28;20044;-71
2022/05/05 12:50:43;;;;;;;4.85;2.80;;;22.50;90.30;;;;;;5060985;28;20053;-71
2022/05/05 13:01:44;;;;;;;5.90;3.28;;;22.70;90.20;;;;;;5093705;28;20055;-71
2022/05/05 13:04:15;;;;;;;6.95;4.03;;;22.70;90.00;;;;;;5079337;28;20478;-71
2022/05/05 13:06:54;;;;;;;4.50;3.10;;;22.70;89.70;;;;;;5051944;28;20046;-72
2022/05/05 13:09:21;;;;;;;4.53;3.08;;;22.60;89.20;;;;;;5066780;28;20040;-71
2022/05/05 13:11:52;;;;;;;7.80;3.13;;;22.60;89.30;;;;;;5086111;28;20044;-71
2022/05/05 13:14:21;;;;;;;4.63;2.70;;;22.50;88.60;;;;;;5096744;28;20042;-71
2022/05/05 13:16:50;;;;;;;5.47;3.08;;;22.40;89.10;;;;;;5084354;28;20054;-71
2022/05/05 13:19:17;;;;;;;4.47;2.55;;;22.50;89.00;;;;;;5060578;28;20572;-71
2022/05/05 13:21:45;;;;;;;4.45;3.15;;;22.50;89.00;;;;;;5050547;28;20052;-71
2022/05/05 13:24:13;;;;;;;6.45;3.08;;;22.60;88.40;;;;;;5090716;28;20119;-71
2022/05/05 13:26:42;;;;;;;5.07;2.75;;;22.60;88.50;;;;;;5077993;28;20048;-71
2022/05/05 13:29:11;;;;;;;4.35;3.42;;;22.70;87.50;;;;;;5038250;28;20053;-71
2022/05/05 13:31:40;;;;;;;5.50;2.60;;;22.70;87.60;;;;;;5061558;28;20111;-71
2022/05/05 13:34:08;;;;;;;5.13;2.70;;;22.60;87.60;;;;;;5069991;28;20480;-71
2022/05/05 13:36:36;;;;;;;4.30;2.80;;;22.50;87.00;;;;;;5060616;28;20083;-71
2022/05/05 13:39:06;;;;;;;3.70;2.40;;;22.40;87.00;;;;;;5063595;28;20478;-71
2022/05/05 13:41:34;;;;;;;3.53;2.35;;;22.30;86.90;;;;;;5058278;28;20163;-71
2022/05/05 13:44:03;;;;;;;3.75;2.40;;;22.30;86.70;;;;;;5069582;28;20039;-72
2022/05/05 13:46:32;;;;;;;4.22;2.75;;;22.20;86.50;;;;;;5062593;28;20045;-71
2022/05/05 13:49:01;;;;;;;4.60;2.30;;;22.10;86.60;;;;;;5027047;28;20410;-72
2022/05/05 13:51:28;;;;;;;4.03;2.80;;;22.10;87.00;;;;;;5068256;28;20039;-73